Terminal Aerodrome Forecast
Issued by NWS

Home | Current Version | Previous Version | Text Only | Print | Product List | Glossary On
Versions: 1 2 3 4 5 6 7 8 9 10 11 12 13 14
000
FTUS45 KGJT 260544
TAFRIL
TAF
KRIL 260544Z 2606/2706 13006KT P6SM VCSH BKN060
     FM260800 VRB04KT P6SM VCSH BKN070
     FM261300 VRB03KT P6SM SCT080
     FM261800 25016G27KT P6SM SCT110
     FM270300 23012KT P6SM BKN090=

USA.gov is the U.S. government's official web portal to all federal, state and local government web resources and services.